Terminal Aerodrome Forecast
Issued by NWS Midland/Odessa, TX

Home | Current Version | Previous Version | Text Only | Print | Product List | Glossary On
Versions: 1 2 3 4 5 6 7 8 9 10 11 12 13 14 15 16 17 18 19
000
FTUS44 KMAF 300522
TAFMAF
TAF
KMAF 300522Z 3006/3106 04018G27KT P6SM BKN025
     FM300900 15010KT P6SM BKN015
     FM301600 17013KT P6SM BKN070 PROB30 3021/3103 TSRA BKN050CB=

USA.gov is the U.S. government's official web portal to all federal, state and local government web resources and services.